createdAt,value
2023-01-06T00:00:38.026Z,97746.88
2023-01-06T00:03:04.917Z,97744.00
2023-01-06T00:05:31.614Z,97746.75
2023-01-06T00:07:59.140Z,97740.50
2023-01-06T00:10:26.091Z,97741.97
2023-01-06T00:12:52.788Z,97742.53
2023-01-06T00:15:19.737Z,97734.28
2023-01-06T00:17:46.419Z,97737.75
2023-01-06T00:20:13.240Z,97735.00
2023-01-06T00:22:40.469Z,97732.25
2023-01-06T00:25:07.280Z,97735.00
2023-01-06T00:27:33.888Z,97726.06
2023-01-06T00:30:00.472Z,97725.22
2023-01-06T00:32:27.140Z,97725.94
2023-01-06T00:34:53.752Z,97725.94
2023-01-06T00:37:20.384Z,97727.97
2023-01-06T00:39:53.519Z,97732.75
2023-01-06T00:42:22.709Z,97725.22
2023-01-06T00:44:49.595Z,97718.28
2023-01-06T00:47:16.262Z,97719.00
2023-01-06T00:49:42.931Z,97716.97
2023-01-06T00:52:09.514Z,97716.97
2023-01-06T00:54:37.264Z,97721.03
2023-01-06T00:57:05.501Z,97727.97
2023-01-06T00:59:32.204Z,97725.81
2023-01-06T01:02:01.976Z,97734.78
2023-01-06T01:04:29.308Z,97732.59
2023-01-06T01:06:55.980Z,97734.50
2023-01-06T01:09:24.294Z,97731.03
2023-01-06T01:12:10.161Z,97734.50
2023-01-06T01:14:37.842Z,97728.28
2023-01-06T01:17:04.463Z,97733.06
2023-01-06T01:19:31.187Z,97724.09
2023-01-06T01:21:57.800Z,97726.09
2023-01-06T01:24:24.516Z,97735.09
2023-01-06T01:26:51.079Z,97726.84
2023-01-06T01:29:23.500Z,97731.59
2023-01-06T01:31:51.681Z,97728.13
2023-01-06T01:34:18.556Z,97733.63
2023-01-06T01:36:46.108Z,97727.41
2023-01-06T01:39:13.751Z,97732.91
2023-01-06T01:41:40.997Z,97728.00
2023-01-06T01:44:26.420Z,97722.50
2023-01-06T01:46:53.110Z,97725.25
2023-01-06T01:49:21.000Z,97720.34
2023-01-06T01:51:48.535Z,97727.16
2023-01-06T01:54:16.407Z,97715.41
2023-01-06T01:56:45.999Z,97728.44
2023-01-06T01:59:15.565Z,97729.75
2023-01-06T02:01:42.230Z,97722.69
2023-01-06T02:04:08.960Z,97731.66
2023-01-06T02:06:35.659Z,97722.69
2023-01-06T02:09:19.439Z,97731.66
2023-01-06T02:11:51.121Z,97717.19
2023-01-06T02:14:22.353Z,97724.69
2023-01-06T02:17:07.571Z,97721.22
2023-01-06T02:19:52.955Z,97714.31
2023-01-06T02:22:38.380Z,97716.94
2023-01-06T02:25:27.894Z,97727.19
2023-01-06T02:28:12.784Z,97718.81
2023-01-06T02:30:56.566Z,97727.75
2023-01-06T02:33:30.948Z,97729.06
2023-01-06T02:36:14.061Z,97725.59
2023-01-06T02:38:48.240Z,97729.53
2023-01-06T02:41:15.286Z,97717.69
2023-01-06T02:44:02.836Z,97721.88
2023-01-06T02:46:32.763Z,97713.63
2023-01-06T02:49:22.533Z,97713.78
2023-01-06T02:51:57.733Z,97723.31
2023-01-06T02:54:33.064Z,97715.66
2023-01-06T02:57:18.455Z,97725.81
2023-01-06T03:00:12.556Z,97718.88
2023-01-06T03:02:41.468Z,97705.84
2023-01-06T03:05:08.799Z,97699.63
2023-01-06T03:07:36.367Z,97707.88
2023-01-06T03:10:03.115Z,97712.06
2023-01-06T03:12:41.902Z,97709.16
2023-01-06T03:15:08.987Z,97713.38
2023-01-06T03:17:35.998Z,97706.41
2023-01-06T03:20:03.218Z,97712.63
2023-01-06T03:22:30.333Z,97703.53
2023-01-06T03:24:57.016Z,97705.56
2023-01-06T03:27:25.973Z,97713.94
2023-01-06T03:29:53.067Z,97710.47
2023-01-06T03:32:24.543Z,97710.47
2023-01-06T03:35:04.426Z,97706.28
2023-01-06T03:37:55.125Z,97712.50
2023-01-06T03:40:21.859Z,97715.25
2023-01-06T03:43:09.393Z,97711.06
2023-01-06T03:45:40.190Z,97713.66
2023-01-06T03:48:22.863Z,97716.41
2023-01-06T03:51:08.471Z,97708.03
2023-01-06T03:53:43.229Z,97720.34
2023-01-06T03:56:16.097Z,97716.88
2023-01-06T03:58:43.134Z,97719.63
2023-01-06T04:01:10.601Z,97713.41
2023-01-06T04:03:37.607Z,97710.66
2023-01-06T04:06:04.459Z,97716.72
2023-01-06T04:08:32.313Z,97710.50
2023-01-06T04:10:59.468Z,97716.72
2023-01-06T04:13:27.396Z,97708.34
2023-01-06T04:15:56.625Z,97711.09
2023-01-06T04:18:23.328Z,97714.44
2023-01-06T04:20:50.093Z,97705.47
2023-01-06T04:23:23.095Z,97704.00
2023-01-06T04:25:50.052Z,97709.38
2023-01-06T04:28:26.852Z,97706.63
2023-01-06T04:30:57.194Z,97698.97
2023-01-06T04:33:23.918Z,97701.56
2023-01-06T04:35:52.300Z,97693.94
2023-01-06T04:38:20.697Z,97697.84
2023-01-06T04:40:47.212Z,97697.09
2023-01-06T04:43:16.309Z,97690.19
2023-01-06T04:45:43.278Z,97693.50
2023-01-06T04:48:10.792Z,97685.16
2023-01-06T04:50:37.655Z,97686.44
2023-01-06T04:53:04.723Z,97685.72
2023-01-06T04:55:31.425Z,97687.00
2023-01-06T04:57:58.067Z,97686.16
2023-01-06T05:00:25.000Z,97681.94
2023-01-06T05:02:51.597Z,97677.03
2023-01-06T05:05:18.193Z,97674.28
2023-01-06T05:07:44.842Z,97677.63
2023-01-06T05:10:11.525Z,97676.19
2023-01-06T05:12:38.188Z,97671.41
2023-01-06T05:15:05.051Z,97674.00
2023-01-06T05:17:31.806Z,97670.53
2023-01-06T05:19:58.401Z,97671.84
2023-01-06T05:22:25.660Z,97675.91
2023-01-06T05:24:52.203Z,97677.94
2023-01-06T05:27:18.809Z,97681.53
2023-01-06T05:29:45.351Z,97679.97
2023-01-06T05:32:11.924Z,97686.16
2023-01-06T05:34:38.501Z,97685.47
2023-01-06T05:37:05.223Z,97690.94
2023-01-06T05:39:31.953Z,97685.47
2023-01-06T05:41:58.575Z,97692.25
2023-01-06T05:44:25.212Z,97697.00
2023-01-06T05:46:51.828Z,97696.44
2023-01-06T05:49:18.473Z,97706.69
2023-01-06T05:51:45.073Z,97710.72
2023-01-06T05:54:11.762Z,97707.25
2023-01-06T05:56:38.368Z,97718.97
2023-01-06T05:59:04.995Z,97712.75
2023-01-06T06:01:31.857Z,97715.50
2023-01-06T06:03:58.861Z,97705.97
2023-01-06T06:06:26.277Z,97710.00
2023-01-06T06:08:52.919Z,97710.72
2023-01-06T06:11:20.058Z,97712.03
2023-01-06T06:13:47.481Z,97707.97
2023-01-06T06:16:14.919Z,97708.72
2023-01-06T06:18:44.944Z,97704.53
2023-01-06T06:21:12.485Z,97705.97
2023-01-06T06:23:39.496Z,97712.19
2023-01-06T06:26:06.412Z,97717.69
2023-01-06T06:28:33.453Z,97714.94
2023-01-06T06:31:16.509Z,97721.72
2023-01-06T06:33:43.295Z,97713.94
2023-01-06T06:36:15.862Z,97718.44
2023-01-06T06:38:44.551Z,97724.09
2023-01-06T06:41:11.195Z,97720.31
2023-01-06T06:43:38.323Z,97732.31
2023-01-06T06:46:05.605Z,97734.91
2023-01-06T06:48:33.926Z,97722.03
2023-01-06T06:51:03.257Z,97728.16
2023-01-06T06:53:29.997Z,97723.84
2023-01-06T06:55:57.025Z,97707.25
2023-01-06T06:58:24.090Z,97712.09
2023-01-06T07:00:51.151Z,97714.41
2023-01-06T07:03:17.947Z,97708.59
2023-01-06T07:05:45.817Z,97708.59
2023-01-06T07:08:12.923Z,97712.06
2023-01-06T07:10:39.779Z,97701.84
2023-01-06T07:13:06.566Z,97717.28
2023-01-06T07:15:34.024Z,97717.63
2023-01-06T07:18:05.062Z,97714.44
2023-01-06T07:20:33.264Z,97723.31
2023-01-06T07:23:00.152Z,97720.75
2023-01-06T07:25:27.371Z,97715.94
2023-01-06T07:27:55.562Z,97719.53
2023-01-06T07:30:22.929Z,97727.00
2023-01-06T07:32:50.260Z,97717.97
2023-01-06T07:35:17.855Z,97711.34
2023-01-06T07:37:44.769Z,97718.75
2023-01-06T07:40:11.968Z,97723.06
2023-01-06T07:42:38.685Z,97716.47
2023-01-06T07:45:07.336Z,97717.75
2023-01-06T07:47:34.070Z,97725.09
2023-01-06T07:50:01.019Z,97735.91
2023-01-06T07:52:27.741Z,97735.16
2023-01-06T07:54:56.901Z,97731.28
2023-01-06T07:57:23.620Z,97733.63
2023-01-06T07:59:50.448Z,97731.91
2023-01-06T08:02:17.278Z,97733.09
2023-01-06T08:04:44.281Z,97742.47
2023-01-06T08:07:10.992Z,97735.16
2023-01-06T08:09:37.747Z,97744.81
2023-01-06T08:12:04.620Z,97737.72
2023-01-06T08:14:31.362Z,97744.50
2023-01-06T08:16:58.123Z,97737.16
2023-01-06T08:19:24.903Z,97744.66
2023-01-06T08:21:51.669Z,97748.38
2023-01-06T08:24:18.477Z,97748.66
2023-01-06T08:26:45.182Z,97744.44
2023-01-06T08:29:11.933Z,97748.94
2023-01-06T08:31:38.870Z,97748.94
2023-01-06T08:34:06.202Z,97750.16
2023-01-06T08:36:32.889Z,97754.88
2023-01-06T08:38:59.711Z,97756.28
2023-01-06T08:41:26.557Z,97760.59
2023-01-06T08:43:53.324Z,97772.53
2023-01-06T08:46:20.548Z,97778.31
2023-01-06T08:48:48.114Z,97774.50
2023-01-06T08:51:18.102Z,97777.78
2023-01-06T08:53:45.430Z,97775.41
2023-01-06T08:56:17.475Z,97778.78
2023-01-06T08:58:44.293Z,97782.38
2023-01-06T09:01:19.493Z,97783.09
2023-01-06T09:03:46.515Z,97782.84
2023-01-06T09:06:13.535Z,97786.34
2023-01-06T09:08:40.393Z,97779.03
2023-01-06T09:11:08.596Z,97779.03
2023-01-06T09:13:35.901Z,97781.06
2023-01-06T09:16:10.285Z,97780.97
2023-01-06T09:18:37.613Z,97777.94
2023-01-06T09:21:05.589Z,97787.22
2023-01-06T09:23:32.668Z,97784.06
2023-01-06T09:25:59.504Z,97802.41
2023-01-06T09:28:26.485Z,97799.38
2023-01-06T09:30:53.427Z,97799.81
2023-01-06T09:33:20.754Z,97790.59
2023-01-06T09:35:47.535Z,97799.53
2023-01-06T09:38:19.626Z,97800.69
2023-01-06T09:41:25.037Z,97793.59
2023-01-06T09:43:59.029Z,97804.03
2023-01-06T10:05:35.681Z,97774.19
2023-01-06T10:08:13.255Z,97780.38
2023-01-06T10:10:48.893Z,97777.03
2023-01-06T10:13:34.080Z,97768.31
2023-01-06T10:16:16.749Z,97776.34
2023-01-06T10:18:53.185Z,97781.22
2023-01-06T10:22:09.524Z,97778.75
2023-01-06T10:24:36.257Z,97785.94
2023-01-06T10:27:20.947Z,97776.06
2023-01-06T10:29:47.580Z,97775.06
2023-01-06T10:32:15.773Z,97770.13
2023-01-06T10:34:42.600Z,97767.81
2023-01-06T10:37:20.187Z,97764.47
2023-01-06T10:39:48.480Z,97761.31
2023-01-06T10:42:50.291Z,97753.69
2023-01-06T10:45:16.969Z,97750.88
2023-01-06T10:47:43.677Z,97750.31
2023-01-06T10:50:17.551Z,97741.38
2023-01-06T10:52:45.120Z,97748.44
2023-01-06T10:55:28.334Z,97753.81
2023-01-06T10:57:55.293Z,97752.41
2023-01-06T11:00:22.730Z,97759.63
2023-01-06T11:02:50.498Z,97767.78
2023-01-06T11:05:23.986Z,97762.56
2023-01-06T11:07:57.468Z,97761.59
2023-01-06T11:10:25.546Z,97748.31
2023-01-06T11:12:52.107Z,97752.25
2023-01-06T11:15:22.548Z,97740.28
2023-01-06T11:17:49.171Z,97744.16
2023-01-06T11:20:18.628Z,97744.59
2023-01-06T11:22:51.357Z,97750.53
2023-01-06T11:25:29.580Z,97746.19
2023-01-06T11:28:11.453Z,97746.75
2023-01-06T11:30:38.875Z,97745.75
2023-01-06T11:33:05.849Z,97750.09
2023-01-06T11:35:32.967Z,97751.53
2023-01-06T11:38:00.026Z,97745.75
2023-01-06T11:40:32.099Z,97740.25
2023-01-06T11:43:00.030Z,97740.97
2023-01-06T11:45:40.256Z,97741.28
2023-01-06T11:48:17.323Z,97737.78
2023-01-06T11:50:54.802Z,97728.50
2023-01-06T11:53:21.808Z,97726.34
2023-01-06T11:55:55.420Z,97725.06
2023-01-06T11:58:25.564Z,97721.03
2023-01-06T12:00:53.629Z,97712.34
2023-01-06T12:03:31.386Z,97712.94
2023-01-06T12:06:00.862Z,97709.91
2023-01-06T12:08:30.781Z,97716.69
2023-01-06T12:10:58.967Z,97702.56
2023-01-06T12:13:25.532Z,97698.97
2023-01-06T12:15:56.488Z,97706.63
2023-01-06T12:18:24.328Z,97705.34
2023-01-06T12:20:51.320Z,97699.69
2023-01-06T12:23:22.655Z,97701.41
2023-01-06T12:25:49.475Z,97700.69
2023-01-06T12:28:20.277Z,97703.72
2023-01-06T12:30:55.520Z,97691.59
2023-01-06T12:33:28.328Z,97692.19
2023-01-06T12:35:55.796Z,97695.38
2023-01-06T12:38:37.416Z,97693.03
2023-01-06T12:41:24.391Z,97688.16
2023-01-06T12:44:00.245Z,97690.47
2023-01-06T12:46:30.134Z,97687.25
2023-01-06T12:49:01.534Z,97684.22
2023-01-06T12:51:38.760Z,97685.97
2023-01-06T12:54:06.812Z,97672.53
2023-01-06T12:56:45.388Z,97673.97
2023-01-06T12:59:14.818Z,97673.72
2023-01-06T13:01:51.656Z,97665.31
2023-01-06T13:04:33.846Z,97668.78
2023-01-06T13:07:07.477Z,97674.16
2023-01-06T13:09:52.872Z,97677.00
2023-01-06T13:12:28.368Z,97669.66
2023-01-06T13:15:04.566Z,97667.94
2023-01-06T13:17:37.036Z,97659.84
2023-01-06T13:20:06.069Z,97657.53
2023-01-06T13:22:35.291Z,97649.59
2023-01-06T13:25:01.930Z,97651.34
2023-01-06T13:27:43.824Z,97672.84
2023-01-06T13:30:10.615Z,97662.44
2023-01-06T13:32:55.871Z,97667.34
2023-01-06T13:35:28.426Z,97663.75
2023-01-06T13:38:13.065Z,97667.22
2023-01-06T13:40:39.843Z,97673.00
2023-01-06T13:43:07.183Z,97679.34
2023-01-06T13:45:34.320Z,97659.72
2023-01-06T13:48:00.915Z,97660.44
2023-01-06T13:50:27.678Z,97670.09
2023-01-06T13:52:54.208Z,97668.06
2023-01-06T13:55:20.844Z,97673.13
2023-01-06T13:57:47.476Z,97671.97
2023-01-06T14:00:15.427Z,97682.66
2023-01-06T14:02:42.967Z,97686.13
2023-01-06T14:05:18.832Z,97684.81
2023-01-06T14:07:51.339Z,97688.28
2023-01-06T14:10:33.081Z,97688.69
2023-01-06T14:12:59.928Z,97691.91
2023-01-06T14:15:28.075Z,97689.56
2023-01-06T14:17:54.652Z,97687.81
2023-01-06T14:20:34.687Z,97683.06
2023-01-06T14:23:02.583Z,97692.16
2023-01-06T14:25:29.196Z,97691.59
2023-01-06T14:27:58.835Z,97697.78
2023-01-06T14:30:25.355Z,97695.47
2023-01-06T14:32:52.089Z,97694.75
2023-01-06T14:35:20.262Z,97691.28
2023-01-06T14:37:50.887Z,97684.47
2023-01-06T14:40:27.858Z,97688.34
2023-01-06T14:42:55.516Z,97687.13
2023-01-06T14:45:23.921Z,97688.44
2023-01-06T14:47:51.725Z,97691.50
2023-01-06T14:50:18.323Z,97683.97
2023-01-06T14:53:11.311Z,97690.50
2023-01-06T14:55:38.705Z,97693.94
2023-01-06T14:58:05.216Z,97699.28
2023-01-06T15:00:33.467Z,97701.44
2023-01-06T15:03:01.098Z,97699.56
2023-01-06T15:05:34.748Z,97701.59
2023-01-06T15:08:01.360Z,97697.81
2023-01-06T15:10:28.208Z,97698.28
2023-01-06T15:12:57.184Z,97702.13
2023-01-06T15:15:24.064Z,97698.81
2023-01-06T15:17:51.167Z,97695.19
2023-01-06T15:20:17.780Z,97704.84
2023-01-06T15:22:49.316Z,97685.66
2023-01-06T15:25:19.942Z,97688.41
2023-01-06T15:27:48.352Z,97695.91
2023-01-06T15:30:16.854Z,97705.25
2023-01-06T15:32:43.467Z,97705.34
2023-01-06T15:35:14.694Z,97710.09
2023-01-06T15:37:41.306Z,97697.88
2023-01-06T15:40:08.189Z,97703.47
2023-01-06T15:42:36.281Z,97703.47
2023-01-06T15:45:04.689Z,97702.59
2023-01-06T15:47:37.142Z,97703.19
2023-01-06T15:50:05.209Z,97702.84
2023-01-06T15:52:33.128Z,97700.56
2023-01-06T15:55:00.770Z,97702.84
2023-01-06T15:57:27.544Z,97709.19
2023-01-06T15:59:57.713Z,97704.44
2023-01-06T16:02:26.045Z,97711.06
2023-01-06T16:04:52.780Z,97711.59
2023-01-06T16:07:23.705Z,97711.91
2023-01-06T16:09:50.414Z,97702.72
2023-01-06T16:12:19.900Z,97707.34
2023-01-06T16:14:49.132Z,97708.78
2023-01-06T16:17:20.563Z,97713.34
2023-01-06T16:20:01.451Z,97706.69
2023-01-06T16:22:47.602Z,97700.97
2023-01-06T16:25:34.278Z,97698.00
2023-01-06T16:28:09.398Z,97694.59
2023-01-06T16:30:36.818Z,97682.94
2023-01-06T16:33:04.067Z,97681.53
2023-01-06T16:35:34.490Z,97682.69
2023-01-06T16:38:01.629Z,97680.56
2023-01-06T16:40:28.988Z,97671.34
2023-01-06T16:43:00.608Z,97680.00
2023-01-06T16:45:40.855Z,97673.53
2023-01-06T16:48:07.701Z,97676.00
2023-01-06T16:50:40.722Z,97681.06
2023-01-06T16:53:10.658Z,97677.16
2023-01-06T16:55:38.591Z,97671.97
2023-01-06T16:58:15.983Z,97663.88
2023-01-06T17:00:48.042Z,97664.75
2023-01-06T17:03:16.856Z,97671.81
2023-01-06T17:05:43.776Z,97675.44
2023-01-06T17:08:37.870Z,97676.47
2023-01-06T17:11:18.121Z,97673.13
2023-01-06T17:13:54.646Z,97675.28
2023-01-06T17:16:27.161Z,97669.97
2023-01-06T17:18:56.562Z,97679.63
2023-01-06T17:21:27.157Z,97676.31
2023-01-06T17:24:16.858Z,97674.28
2023-01-06T17:26:58.953Z,97670.38
2023-01-06T17:29:29.131Z,97671.81
2023-01-06T17:31:58.749Z,97663.72
2023-01-06T17:34:38.451Z,97666.47
2023-01-06T17:37:23.939Z,97668.66
2023-01-06T17:39:53.678Z,97668.06
2023-01-06T17:42:36.000Z,97669.50
2023-01-06T17:45:25.678Z,97670.22
2023-01-06T17:47:52.599Z,97669.81
2023-01-06T17:50:34.387Z,97670.94
2023-01-06T17:53:38.151Z,97669.09
2023-01-06T17:56:07.687Z,97671.09
2023-01-06T17:58:39.839Z,97660.84
2023-01-06T18:01:32.209Z,97665.03
2023-01-06T18:04:00.398Z,97657.53
2023-01-06T18:06:38.716Z,97669.94
2023-01-06T18:09:05.893Z,97669.38
2023-01-06T18:11:35.195Z,97663.16
2023-01-06T18:14:33.716Z,97665.88
2023-01-06T18:17:15.400Z,97659.13
2023-01-06T18:19:42.345Z,97665.47
2023-01-06T18:22:18.810Z,97666.75
2023-01-06T18:24:47.092Z,97671.66
2023-01-06T18:27:22.455Z,97665.47
2023-01-06T18:29:49.966Z,97668.38
2023-01-06T18:32:33.425Z,97662.88
2023-01-06T18:35:28.834Z,97670.53
2023-01-06T18:38:00.094Z,97670.53
2023-01-06T18:40:27.192Z,97667.91
2023-01-06T18:42:55.322Z,97667.78
2023-01-06T18:45:35.933Z,97674.69
2023-01-06T18:48:12.715Z,97671.25
2023-01-06T18:50:42.588Z,97677.56
2023-01-06T18:53:09.221Z,97672.81
2023-01-06T18:55:41.235Z,97667.91
2023-01-06T18:58:35.649Z,97670.06
2023-01-06T19:01:12.062Z,97667.91
2023-01-06T19:03:47.227Z,97667.31
2023-01-06T19:06:20.067Z,97667.91
2023-01-06T19:08:49.411Z,97667.91
2023-01-06T19:11:24.649Z,97665.16
2023-01-06T19:13:55.993Z,97668.63
2023-01-06T19:16:41.272Z,97658.38
2023-01-06T19:19:11.206Z,97650.84
2023-01-06T19:21:38.450Z,97651.59
2023-01-06T19:24:30.684Z,97648.84
2023-01-06T19:27:01.812Z,97645.53
2023-01-06T19:29:33.473Z,97653.59
2023-01-06T19:32:04.088Z,97651.59
2023-01-06T19:34:31.024Z,97656.34
2023-01-06T19:36:58.333Z,97648.41
2023-01-06T19:39:40.450Z,97652.31
2023-01-06T19:42:24.550Z,97651.59
2023-01-06T19:44:56.308Z,97650.84
2023-01-06T19:47:25.516Z,97647.41
2023-01-06T19:49:56.069Z,97648.84
2023-01-06T19:52:31.880Z,97653.03
2023-01-06T19:55:23.177Z,97644.09
2023-01-06T19:58:00.638Z,97646.25
2023-01-06T20:00:31.808Z,97646.97
2023-01-06T20:03:01.976Z,97651.72
2023-01-06T20:05:29.615Z,97646.97
2023-01-06T20:07:56.354Z,97641.47
2023-01-06T20:10:23.152Z,97640.75
2023-01-06T20:12:49.998Z,97644.94
2023-01-06T20:15:16.879Z,97639.44
2023-01-06T20:17:43.589Z,97642.19
2023-01-06T20:20:11.282Z,97643.63
2023-01-06T20:22:38.033Z,97644.94
2023-01-06T20:25:05.184Z,97640.75
2023-01-06T20:27:31.912Z,97636.72
2023-01-06T20:29:58.656Z,97636.56
2023-01-06T20:32:25.308Z,97631.81
2023-01-06T20:34:52.095Z,97637.28
2023-01-06T20:37:18.891Z,97637.28
2023-01-06T20:39:45.700Z,97644.09
2023-01-06T20:42:13.425Z,97637.13
2023-01-06T20:44:40.346Z,97637.88
2023-01-06T20:47:07.130Z,97636.56
2023-01-06T20:49:34.540Z,97641.34
2023-01-06T20:52:01.398Z,97635.84
2023-01-06T20:54:28.299Z,97635.84
2023-01-06T20:56:55.065Z,97639.88
2023-01-06T20:59:21.960Z,97637.13
2023-01-06T21:01:48.788Z,97632.94
2023-01-06T21:04:15.584Z,97635.69
2023-01-06T21:06:42.372Z,97634.97
2023-01-06T21:09:09.291Z,97629.50
2023-01-06T21:11:35.988Z,97630.22
2023-01-06T21:14:02.737Z,97628.78
2023-01-06T21:16:29.505Z,97627.47
2023-01-06T21:18:57.512Z,97620.53
2023-01-06T21:21:24.336Z,97617.22
2023-01-06T21:23:51.036Z,97606.81
2023-01-06T21:26:17.698Z,97612.31
2023-01-06T21:28:45.083Z,97606.81
2023-01-06T21:31:11.964Z,97611.59
2023-01-06T21:33:38.737Z,97607.53
2023-01-06T21:36:05.801Z,97603.34
2023-01-06T21:38:34.503Z,97603.34
2023-01-06T21:41:19.552Z,97601.91
2023-01-06T21:43:46.267Z,97597.88
2023-01-06T21:46:12.934Z,97599.19
2023-01-06T21:48:39.756Z,97602.63
2023-01-06T21:51:06.621Z,97599.19
2023-01-06T21:53:33.559Z,97608.84
2023-01-06T21:56:00.592Z,97605.38
2023-01-06T21:58:27.419Z,97598.47
2023-01-06T22:00:54.149Z,97605.25
2023-01-06T22:03:21.178Z,97604.66
2023-01-06T22:05:48.025Z,97607.41
2023-01-06T22:08:14.941Z,97599.91
2023-01-06T22:10:43.169Z,97601.91
2023-01-06T22:13:12.887Z,97601.19
2023-01-06T22:15:40.313Z,97599.91
2023-01-06T22:18:07.256Z,97599.91
2023-01-06T22:20:34.269Z,97590.22
2023-01-06T22:23:03.909Z,97585.31
2023-01-06T22:25:30.988Z,97582.56
2023-01-06T22:28:00.700Z,97584.59
2023-01-06T22:30:27.956Z,97581.84
2023-01-06T22:32:54.709Z,97581.13
2023-01-06T22:35:21.483Z,97580.41
2023-01-06T22:37:48.299Z,97583.16
2023-01-06T22:40:15.149Z,97579.69
2023-01-06T22:42:42.350Z,97583.16
2023-01-06T22:45:09.550Z,97583.75
2023-01-06T22:47:36.717Z,97578.97
2023-01-06T22:50:04.337Z,97583.75
2023-01-06T22:52:31.131Z,97583.03
2023-01-06T22:54:57.877Z,97584.31
2023-01-06T22:57:25.922Z,97586.47
2023-01-06T22:59:52.660Z,97580.84
2023-01-06T23:02:19.599Z,97585.59
2023-01-06T23:04:46.312Z,97577.38
2023-01-06T23:07:14.100Z,97571.16
2023-01-06T23:09:40.812Z,97571.88
2023-01-06T23:12:07.776Z,97568.44
2023-01-06T23:14:34.489Z,97568.44
2023-01-06T23:17:01.397Z,97567.72
2023-01-06T23:19:28.106Z,97556.00
2023-01-06T23:21:54.869Z,97544.31
2023-01-06T23:24:21.580Z,97551.84
2023-01-06T23:26:48.693Z,97542.88
2023-01-06T23:29:15.658Z,97549.09
2023-01-06T23:31:44.629Z,97544.91
2023-01-06T23:34:16.812Z,97550.97
2023-01-06T23:36:43.992Z,97540.00
2023-01-06T23:39:13.318Z,97538.56
2023-01-06T23:41:40.365Z,97528.88
2023-01-06T23:44:07.162Z,97525.44
2023-01-06T23:46:36.638Z,97524.72
2023-01-06T23:49:04.617Z,97532.94
2023-01-06T23:51:32.576Z,97530.19
2023-01-06T23:54:00.359Z,97530.19
2023-01-06T23:56:29.571Z,97528.03
2023-01-06T23:58:58.322Z,97523.28
